sensor_id;sensor_type;location;lat;lon;timestamp;P1;durP1;ratioP1;P2;durP2;ratioP2
33952;SDS011;20231;42.710;23.280;2023-01-23T00:00:30;9.60;;;5.30;;
33952;SDS011;20231;42.710;23.280;2023-01-23T00:02:56;7.13;;;5.70;;
33952;SDS011;20231;42.710;23.280;2023-01-23T00:05:22;8.38;;;6.28;;
33952;SDS011;20231;42.710;23.280;2023-01-23T00:07:47;8.23;;;5.88;;
33952;SDS011;20231;42.710;23.280;2023-01-23T00:10:13;7.68;;;5.78;;
33952;SDS011;20231;42.710;23.280;2023-01-23T00:12:42;9.30;;;5.43;;
33952;SDS011;20231;42.710;23.280;2023-01-23T00:15:09;12.45;;;5.70;;
33952;SDS011;20231;42.710;23.280;2023-01-23T00:17:36;9.90;;;5.68;;
33952;SDS011;20231;42.710;23.280;2023-01-23T00:20:02;9.98;;;6.40;;
33952;SDS011;20231;42.710;23.280;2023-01-23T00:22:28;9.15;;;5.50;;
33952;SDS011;20231;42.710;23.280;2023-01-23T00:24:54;7.50;;;5.18;;
33952;SDS011;20231;42.710;23.280;2023-01-23T00:27:19;8.50;;;5.18;;
33952;SDS011;20231;42.710;23.280;2023-01-23T00:29:45;11.15;;;5.38;;
33952;SDS011;20231;42.710;23.280;2023-01-23T00:32:11;9.00;;;5.50;;
33952;SDS011;20231;42.710;23.280;2023-01-23T00:34:37;9.45;;;5.65;;
33952;SDS011;20231;42.710;23.280;2023-01-23T00:37:02;10.73;;;5.97;;
33952;SDS011;20231;42.710;23.280;2023-01-23T00:39:28;7.50;;;5.38;;
33952;SDS011;20231;42.710;23.280;2023-01-23T00:41:54;8.48;;;5.75;;
33952;SDS011;20231;42.710;23.280;2023-01-23T00:44:20;10.95;;;5.38;;
33952;SDS011;20231;42.710;23.280;2023-01-23T00:46:45;9.43;;;6.03;;
33952;SDS011;20231;42.710;23.280;2023-01-23T00:49:11;9.02;;;5.50;;
33952;SDS011;20231;42.710;23.280;2023-01-23T00:51:36;8.43;;;5.57;;
33952;SDS011;20231;42.710;23.280;2023-01-23T00:54:02;12.85;;;6.03;;
33952;SDS011;20231;42.710;23.280;2023-01-23T00:56:27;9.60;;;6.88;;
33952;SDS011;20231;42.710;23.280;2023-01-23T00:58:53;9.45;;;6.53;;
33952;SDS011;20231;42.710;23.280;2023-01-23T01:01:19;9.75;;;6.55;;
33952;SDS011;20231;42.710;23.280;2023-01-23T01:03:46;9.57;;;6.22;;
33952;SDS011;20231;42.710;23.280;2023-01-23T01:06:13;10.60;;;5.28;;
33952;SDS011;20231;42.710;23.280;2023-01-23T01:08:38;9.27;;;6.10;;
33952;SDS011;20231;42.710;23.280;2023-01-23T01:11:04;7.60;;;5.45;;
33952;SDS011;20231;42.710;23.280;2023-01-23T01:13:30;9.13;;;5.88;;
33952;SDS011;20231;42.710;23.280;2023-01-23T01:15:55;10.00;;;5.68;;
33952;SDS011;20231;42.710;23.280;2023-01-23T01:18:21;8.82;;;5.40;;
33952;SDS011;20231;42.710;23.280;2023-01-23T01:20:47;9.98;;;6.03;;
33952;SDS011;20231;42.710;23.280;2023-01-23T01:23:13;5.97;;;4.93;;
33952;SDS011;20231;42.710;23.280;2023-01-23T01:25:39;10.82;;;6.00;;
33952;SDS011;20231;42.710;23.280;2023-01-23T01:28:06;10.68;;;6.38;;
33952;SDS011;20231;42.710;23.280;2023-01-23T01:30:32;11.20;;;6.28;;
33952;SDS011;20231;42.710;23.280;2023-01-23T01:32:57;13.23;;;6.38;;
33952;SDS011;20231;42.710;23.280;2023-01-23T01:35:22;8.63;;;5.47;;
33952;SDS011;20231;42.710;23.280;2023-01-23T01:37:48;7.47;;;5.50;;
33952;SDS011;20231;42.710;23.280;2023-01-23T01:40:17;10.43;;;5.32;;
33952;SDS011;20231;42.710;23.280;2023-01-23T01:42:46;10.30;;;5.90;;
33952;SDS011;20231;42.710;23.280;2023-01-23T01:48:17;8.65;;;5.82;;
33952;SDS011;20231;42.710;23.280;2023-01-23T01:50:44;9.77;;;5.57;;
33952;SDS011;20231;42.710;23.280;2023-01-23T01:53:10;12.00;;;6.40;;
33952;SDS011;20231;42.710;23.280;2023-01-23T01:55:36;8.10;;;4.97;;
33952;SDS011;20231;42.710;23.280;2023-01-23T01:58:02;7.63;;;5.03;;
33952;SDS011;20231;42.710;23.280;2023-01-23T02:00:28;7.95;;;4.78;;
33952;SDS011;20231;42.710;23.280;2023-01-23T02:02:54;6.90;;;4.88;;
33952;SDS011;20231;42.710;23.280;2023-01-23T02:10:19;7.13;;;4.28;;
33952;SDS011;20231;42.710;23.280;2023-01-23T02:12:47;7.45;;;4.20;;
33952;SDS011;20231;42.710;23.280;2023-01-23T02:15:13;7.65;;;3.75;;
33952;SDS011;20231;42.710;23.280;2023-01-23T02:17:40;7.20;;;4.50;;
33952;SDS011;20231;42.710;23.280;2023-01-23T02:25:26;8.13;;;4.35;;
33952;SDS011;20231;42.710;23.280;2023-01-23T02:28:00;8.23;;;4.25;;
33952;SDS011;20231;42.710;23.280;2023-01-23T02:30:26;5.80;;;3.60;;
33952;SDS011;20231;42.710;23.280;2023-01-23T02:32:52;6.63;;;3.80;;
33952;SDS011;20231;42.710;23.280;2023-01-23T02:35:27;5.05;;;3.05;;
33952;SDS011;20231;42.710;23.280;2023-01-23T02:37:56;8.13;;;3.83;;
33952;SDS011;20231;42.710;23.280;2023-01-23T02:40:33;8.75;;;4.07;;
33952;SDS011;20231;42.710;23.280;2023-01-23T02:43:02;6.53;;;3.65;;
33952;SDS011;20231;42.710;23.280;2023-01-23T02:45:29;8.88;;;3.90;;
33952;SDS011;20231;42.710;23.280;2023-01-23T02:47:55;6.05;;;4.05;;
33952;SDS011;20231;42.710;23.280;2023-01-23T02:50:21;5.85;;;3.90;;
33952;SDS011;20231;42.710;23.280;2023-01-23T02:52:46;5.85;;;3.50;;
33952;SDS011;20231;42.710;23.280;2023-01-23T02:55:15;8.02;;;4.20;;
33952;SDS011;20231;42.710;23.280;2023-01-23T02:57:41;6.20;;;4.05;;
33952;SDS011;20231;42.710;23.280;2023-01-23T03:00:07;5.28;;;3.83;;
33952;SDS011;20231;42.710;23.280;2023-01-23T03:02:44;5.95;;;4.03;;
33952;SDS011;20231;42.710;23.280;2023-01-23T03:05:11;6.10;;;3.90;;
33952;SDS011;20231;42.710;23.280;2023-01-23T03:07:37;5.75;;;3.47;;
33952;SDS011;20231;42.710;23.280;2023-01-23T03:10:02;5.80;;;3.70;;
33952;SDS011;20231;42.710;23.280;2023-01-23T03:12:29;6.07;;;3.75;;
33952;SDS011;20231;42.710;23.280;2023-01-23T03:14:54;4.78;;;3.53;;
33952;SDS011;20231;42.710;23.280;2023-01-23T03:17:21;4.43;;;3.30;;
33952;SDS011;20231;42.710;23.280;2023-01-23T03:19:47;4.35;;;3.47;;
33952;SDS011;20231;42.710;23.280;2023-01-23T03:22:12;5.55;;;3.30;;
33952;SDS011;20231;42.710;23.280;2023-01-23T03:24:38;11.13;;;3.30;;
33952;SDS011;20231;42.710;23.280;2023-01-23T03:27:04;4.82;;;3.20;;
33952;SDS011;20231;42.710;23.280;2023-01-23T03:29:30;3.58;;;2.72;;
33952;SDS011;20231;42.710;23.280;2023-01-23T03:32:14;4.75;;;3.00;;
33952;SDS011;20231;42.710;23.280;2023-01-23T03:34:40;3.65;;;2.50;;
33952;SDS011;20231;42.710;23.280;2023-01-23T03:37:06;3.40;;;2.58;;
33952;SDS011;20231;42.710;23.280;2023-01-23T03:39:32;4.55;;;3.03;;
33952;SDS011;20231;42.710;23.280;2023-01-23T03:42:17;3.72;;;2.65;;
33952;SDS011;20231;42.710;23.280;2023-01-23T03:44:42;3.33;;;2.70;;
33952;SDS011;20231;42.710;23.280;2023-01-23T03:47:08;3.33;;;2.45;;
33952;SDS011;20231;42.710;23.280;2023-01-23T03:49:33;3.65;;;2.55;;
33952;SDS011;20231;42.710;23.280;2023-01-23T03:51:59;6.13;;;3.10;;
33952;SDS011;20231;42.710;23.280;2023-01-23T03:54:25;5.25;;;3.10;;
33952;SDS011;20231;42.710;23.280;2023-01-23T03:56:50;4.07;;;2.75;;
33952;SDS011;20231;42.710;23.280;2023-01-23T03:59:16;4.95;;;3.08;;
33952;SDS011;20231;42.710;23.280;2023-01-23T04:01:41;5.15;;;3.38;;
33952;SDS011;20231;42.710;23.280;2023-01-23T04:04:06;5.15;;;3.53;;
33952;SDS011;20231;42.710;23.280;2023-01-23T04:06:32;7.28;;;3.88;;
33952;SDS011;20231;42.710;23.280;2023-01-23T04:08:58;7.60;;;3.80;;
33952;SDS011;20231;42.710;23.280;2023-01-23T04:11:23;5.00;;;3.63;;
33952;SDS011;20231;42.710;23.280;2023-01-23T04:13:50;7.53;;;4.07;;
33952;SDS011;20231;42.710;23.280;2023-01-23T04:16:16;8.02;;;4.35;;
33952;SDS011;20231;42.710;23.280;2023-01-23T04:18:42;9.50;;;4.20;;
33952;SDS011;20231;42.710;23.280;2023-01-23T04:21:07;8.43;;;3.85;;
33952;SDS011;20231;42.710;23.280;2023-01-23T04:23:33;9.77;;;4.20;;
33952;SDS011;20231;42.710;23.280;2023-01-23T04:25:58;7.85;;;3.90;;
33952;SDS011;20231;42.710;23.280;2023-01-23T04:28:24;7.82;;;4.13;;
33952;SDS011;20231;42.710;23.280;2023-01-23T04:30:50;6.13;;;3.75;;
33952;SDS011;20231;42.710;23.280;2023-01-23T04:33:16;5.55;;;3.40;;
33952;SDS011;20231;42.710;23.280;2023-01-23T04:35:55;4.85;;;3.40;;
33952;SDS011;20231;42.710;23.280;2023-01-23T04:38:23;5.57;;;3.45;;
33952;SDS011;20231;42.710;23.280;2023-01-23T04:40:49;7.32;;;3.65;;
33952;SDS011;20231;42.710;23.280;2023-01-23T04:43:15;6.38;;;3.25;;
33952;SDS011;20231;42.710;23.280;2023-01-23T04:45:41;5.38;;;3.10;;
33952;SDS011;20231;42.710;23.280;2023-01-23T04:48:08;4.47;;;2.85;;
33952;SDS011;20231;42.710;23.280;2023-01-23T04:50:34;3.95;;;2.53;;
33952;SDS011;20231;42.710;23.280;2023-01-23T04:52:59;6.32;;;2.80;;
33952;SDS011;20231;42.710;23.280;2023-01-23T04:55:25;6.07;;;3.00;;
33952;SDS011;20231;42.710;23.280;2023-01-23T04:57:52;3.42;;;2.45;;
33952;SDS011;20231;42.710;23.280;2023-01-23T05:00:18;6.15;;;2.65;;
33952;SDS011;20231;42.710;23.280;2023-01-23T05:02:49;4.25;;;2.53;;
33952;SDS011;20231;42.710;23.280;2023-01-23T05:05:15;6.32;;;3.05;;
33952;SDS011;20231;42.710;23.280;2023-01-23T05:07:47;7.88;;;2.97;;
33952;SDS011;20231;42.710;23.280;2023-01-23T05:10:14;6.90;;;3.45;;
33952;SDS011;20231;42.710;23.280;2023-01-23T05:12:40;6.47;;;3.47;;
33952;SDS011;20231;42.710;23.280;2023-01-23T05:15:06;5.65;;;3.33;;
33952;SDS011;20231;42.710;23.280;2023-01-23T05:17:32;7.55;;;3.45;;
33952;SDS011;20231;42.710;23.280;2023-01-23T05:19:58;7.43;;;3.55;;
33952;SDS011;20231;42.710;23.280;2023-01-23T05:22:23;7.10;;;3.45;;
33952;SDS011;20231;42.710;23.280;2023-01-23T05:24:49;7.13;;;3.40;;
33952;SDS011;20231;42.710;23.280;2023-01-23T05:27:14;6.82;;;3.15;;
33952;SDS011;20231;42.710;23.280;2023-01-23T05:29:39;5.72;;;3.47;;
33952;SDS011;20231;42.710;23.280;2023-01-23T05:32:05;5.75;;;3.72;;
33952;SDS011;20231;42.710;23.280;2023-01-23T05:34:31;8.15;;;3.78;;
33952;SDS011;20231;42.710;23.280;2023-01-23T05:36:56;5.43;;;3.35;;
33952;SDS011;20231;42.710;23.280;2023-01-23T05:39:22;6.35;;;3.60;;
33952;SDS011;20231;42.710;23.280;2023-01-23T05:41:47;7.40;;;4.63;;
33952;SDS011;20231;42.710;23.280;2023-01-23T05:44:12;9.13;;;3.88;;
33952;SDS011;20231;42.710;23.280;2023-01-23T05:46:38;5.90;;;3.28;;
33952;SDS011;20231;42.710;23.280;2023-01-23T05:49:03;5.30;;;3.28;;
33952;SDS011;20231;42.710;23.280;2023-01-23T05:51:28;6.03;;;3.20;;
33952;SDS011;20231;42.710;23.280;2023-01-23T05:53:58;4.90;;;3.13;;
33952;SDS011;20231;42.710;23.280;2023-01-23T05:56:24;6.03;;;3.05;;
33952;SDS011;20231;42.710;23.280;2023-01-23T05:58:50;4.88;;;3.00;;
33952;SDS011;20231;42.710;23.280;2023-01-23T06:01:15;5.18;;;3.35;;
33952;SDS011;20231;42.710;23.280;2023-01-23T06:03:41;7.55;;;3.05;;
33952;SDS011;20231;42.710;23.280;2023-01-23T06:06:06;4.30;;;2.80;;
33952;SDS011;20231;42.710;23.280;2023-01-23T06:08:32;6.18;;;2.88;;
33952;SDS011;20231;42.710;23.280;2023-01-23T06:10:57;6.45;;;3.13;;
33952;SDS011;20231;42.710;23.280;2023-01-23T06:13:24;7.30;;;3.63;;
33952;SDS011;20231;42.710;23.280;2023-01-23T06:15:50;5.00;;;3.25;;
33952;SDS011;20231;42.710;23.280;2023-01-23T06:18:15;6.40;;;2.97;;
33952;SDS011;20231;42.710;23.280;2023-01-23T06:20:41;4.07;;;2.75;;
33952;SDS011;20231;42.710;23.280;2023-01-23T06:23:07;6.25;;;3.45;;
33952;SDS011;20231;42.710;23.280;2023-01-23T06:25:32;10.27;;;3.58;;
33952;SDS011;20231;42.710;23.280;2023-01-23T06:27:57;7.13;;;3.80;;
33952;SDS011;20231;42.710;23.280;2023-01-23T06:30:23;5.00;;;3.20;;
33952;SDS011;20231;42.710;23.280;2023-01-23T06:32:48;7.57;;;3.60;;
33952;SDS011;20231;42.710;23.280;2023-01-23T06:35:13;6.68;;;3.00;;
33952;SDS011;20231;42.710;23.280;2023-01-23T06:37:39;6.38;;;3.40;;
33952;SDS011;20231;42.710;23.280;2023-01-23T06:40:05;5.18;;;3.47;;
33952;SDS011;20231;42.710;23.280;2023-01-23T06:42:31;5.82;;;3.20;;
33952;SDS011;20231;42.710;23.280;2023-01-23T06:44:56;9.93;;;4.53;;
33952;SDS011;20231;42.710;23.280;2023-01-23T06:47:21;10.60;;;4.13;;
33952;SDS011;20231;42.710;23.280;2023-01-23T06:49:48;8.05;;;4.53;;
33952;SDS011;20231;42.710;23.280;2023-01-23T06:52:13;9.43;;;4.40;;
33952;SDS011;20231;42.710;23.280;2023-01-23T06:54:38;10.05;;;5.85;;
33952;SDS011;20231;42.710;23.280;2023-01-23T06:57:04;10.35;;;5.22;;
33952;SDS011;20231;42.710;23.280;2023-01-23T06:59:29;9.27;;;4.68;;
33952;SDS011;20231;42.710;23.280;2023-01-23T07:01:55;13.23;;;5.90;;
33952;SDS011;20231;42.710;23.280;2023-01-23T07:04:20;14.95;;;6.97;;
33952;SDS011;20231;42.710;23.280;2023-01-23T07:06:45;11.70;;;6.65;;
33952;SDS011;20231;42.710;23.280;2023-01-23T07:09:11;9.52;;;6.35;;
33952;SDS011;20231;42.710;23.280;2023-01-23T07:11:37;11.65;;;6.47;;
33952;SDS011;20231;42.710;23.280;2023-01-23T07:14:03;13.60;;;7.90;;
33952;SDS011;20231;42.710;23.280;2023-01-23T07:16:28;15.52;;;6.75;;
33952;SDS011;20231;42.710;23.280;2023-01-23T07:18:55;10.75;;;6.53;;
33952;SDS011;20231;42.710;23.280;2023-01-23T07:21:22;12.00;;;7.20;;
33952;SDS011;20231;42.710;23.280;2023-01-23T07:23:48;10.73;;;7.10;;
33952;SDS011;20231;42.710;23.280;2023-01-23T07:26:15;10.15;;;6.18;;
33952;SDS011;20231;42.710;23.280;2023-01-23T07:28:40;11.05;;;6.97;;
33952;SDS011;20231;42.710;23.280;2023-01-23T07:31:06;13.52;;;7.35;;
33952;SDS011;20231;42.710;23.280;2023-01-23T07:33:31;14.13;;;7.72;;
33952;SDS011;20231;42.710;23.280;2023-01-23T07:35:57;14.32;;;7.72;;
33952;SDS011;20231;42.710;23.280;2023-01-23T07:38:22;15.90;;;8.00;;
33952;SDS011;20231;42.710;23.280;2023-01-23T07:40:48;15.23;;;7.55;;
33952;SDS011;20231;42.710;23.280;2023-01-23T07:43:14;13.00;;;7.68;;
33952;SDS011;20231;42.710;23.280;2023-01-23T07:45:40;13.95;;;7.97;;
33952;SDS011;20231;42.710;23.280;2023-01-23T07:48:05;12.13;;;7.57;;
33952;SDS011;20231;42.710;23.280;2023-01-23T07:50:31;13.73;;;8.23;;
33952;SDS011;20231;42.710;23.280;2023-01-23T07:52:57;16.33;;;8.18;;
33952;SDS011;20231;42.710;23.280;2023-01-23T07:55:22;15.15;;;7.75;;
33952;SDS011;20231;42.710;23.280;2023-01-23T07:57:48;13.80;;;8.05;;
33952;SDS011;20231;42.710;23.280;2023-01-23T08:00:13;14.02;;;8.07;;
33952;SDS011;20231;42.710;23.280;2023-01-23T08:02:39;10.98;;;6.90;;
33952;SDS011;20231;42.710;23.280;2023-01-23T08:05:05;17.30;;;8.60;;
33952;SDS011;20231;42.710;23.280;2023-01-23T08:07:30;14.88;;;8.50;;
33952;SDS011;20231;42.710;23.280;2023-01-23T08:09:56;16.55;;;9.15;;
33952;SDS011;20231;42.710;23.280;2023-01-23T08:12:21;15.02;;;8.55;;
33952;SDS011;20231;42.710;23.280;2023-01-23T08:14:47;13.05;;;7.95;;
33952;SDS011;20231;42.710;23.280;2023-01-23T08:17:12;13.40;;;7.70;;
33952;SDS011;20231;42.710;23.280;2023-01-23T08:19:38;12.75;;;6.97;;
33952;SDS011;20231;42.710;23.280;2023-01-23T08:22:04;11.95;;;7.45;;
33952;SDS011;20231;42.710;23.280;2023-01-23T08:24:29;12.38;;;7.07;;
33952;SDS011;20231;42.710;23.280;2023-01-23T08:26:56;12.13;;;7.38;;
33952;SDS011;20231;42.710;23.280;2023-01-23T08:29:21;12.88;;;6.95;;
33952;SDS011;20231;42.710;23.280;2023-01-23T08:31:47;14.10;;;7.05;;
33952;SDS011;20231;42.710;23.280;2023-01-23T08:34:12;12.77;;;6.70;;
33952;SDS011;20231;42.710;23.280;2023-01-23T08:36:38;20.15;;;8.35;;
33952;SDS011;20231;42.710;23.280;2023-01-23T08:39:04;10.80;;;6.22;;
33952;SDS011;20231;42.710;23.280;2023-01-23T08:41:30;12.05;;;5.80;;
33952;SDS011;20231;42.710;23.280;2023-01-23T08:43:55;10.32;;;6.10;;
33952;SDS011;20231;42.710;23.280;2023-01-23T08:46:25;8.57;;;5.13;;
33952;SDS011;20231;42.710;23.280;2023-01-23T08:48:52;9.05;;;5.50;;
33952;SDS011;20231;42.710;23.280;2023-01-23T08:51:17;13.18;;;6.00;;
33952;SDS011;20231;42.710;23.280;2023-01-23T08:53:43;14.40;;;5.30;;
33952;SDS011;20231;42.710;23.280;2023-01-23T08:56:12;13.50;;;5.70;;
33952;SDS011;20231;42.710;23.280;2023-01-23T08:58:40;8.90;;;5.25;;
33952;SDS011;20231;42.710;23.280;2023-01-23T09:01:13;7.50;;;4.30;;
33952;SDS011;20231;42.710;23.280;2023-01-23T09:03:39;8.25;;;4.20;;
33952;SDS011;20231;42.710;23.280;2023-01-23T09:06:05;10.57;;;4.97;;
33952;SDS011;20231;42.710;23.280;2023-01-23T09:08:31;7.03;;;4.80;;
33952;SDS011;20231;42.710;23.280;2023-01-23T09:10:58;7.78;;;4.53;;
33952;SDS011;20231;42.710;23.280;2023-01-23T09:13:25;6.97;;;4.47;;
33952;SDS011;20231;42.710;23.280;2023-01-23T09:15:50;7.82;;;4.65;;
33952;SDS011;20231;42.710;23.280;2023-01-23T09:18:16;10.30;;;5.05;;
33952;SDS011;20231;42.710;23.280;2023-01-23T09:20:42;6.07;;;4.35;;
33952;SDS011;20231;42.710;23.280;2023-01-23T09:23:07;7.93;;;4.78;;
33952;SDS011;20231;42.710;23.280;2023-01-23T09:25:33;7.80;;;4.05;;
33952;SDS011;20231;42.710;23.280;2023-01-23T09:27:58;6.72;;;4.10;;
33952;SDS011;20231;42.710;23.280;2023-01-23T09:30:24;7.93;;;4.47;;
33952;SDS011;20231;42.710;23.280;2023-01-23T09:32:49;7.32;;;4.47;;
33952;SDS011;20231;42.710;23.280;2023-01-23T09:35:14;7.78;;;4.30;;
33952;SDS011;20231;42.710;23.280;2023-01-23T09:37:40;7.43;;;3.53;;
33952;SDS011;20231;42.710;23.280;2023-01-23T09:40:24;7.57;;;3.90;;
33952;SDS011;20231;42.710;23.280;2023-01-23T09:43:01;6.97;;;4.00;;
33952;SDS011;20231;42.710;23.280;2023-01-23T09:45:40;8.38;;;4.30;;
33952;SDS011;20231;42.710;23.280;2023-01-23T09:50:52;7.80;;;3.95;;
33952;SDS011;20231;42.710;23.280;2023-01-23T09:53:24;7.32;;;3.67;;
33952;SDS011;20231;42.710;23.280;2023-01-23T09:55:56;6.70;;;4.00;;
33952;SDS011;20231;42.710;23.280;2023-01-23T09:58:27;10.45;;;4.55;;
33952;SDS011;20231;42.710;23.280;2023-01-23T10:00:59;6.35;;;4.00;;
33952;SDS011;20231;42.710;23.280;2023-01-23T10:03:26;7.40;;;4.70;;
33952;SDS011;20231;42.710;23.280;2023-01-23T10:06:03;6.53;;;4.25;;
33952;SDS011;20231;42.710;23.280;2023-01-23T10:16:48;8.15;;;5.05;;
33952;SDS011;20231;42.710;23.280;2023-01-23T10:22:23;9.70;;;5.03;;
33952;SDS011;20231;42.710;23.280;2023-01-23T10:24:59;7.70;;;5.07;;
33952;SDS011;20231;42.710;23.280;2023-01-23T10:27:33;10.65;;;5.78;;
33952;SDS011;20231;42.710;23.280;2023-01-23T10:30:23;12.65;;;5.20;;
33952;SDS011;20231;42.710;23.280;2023-01-23T10:35:33;8.98;;;6.20;;
33952;SDS011;20231;42.710;23.280;2023-01-23T10:38:21;9.45;;;5.25;;
33952;SDS011;20231;42.710;23.280;2023-01-23T10:40:48;9.10;;;5.25;;
33952;SDS011;20231;42.710;23.280;2023-01-23T10:43:33;10.38;;;5.43;;
33952;SDS011;20231;42.710;23.280;2023-01-23T10:45:59;7.95;;;5.30;;
33952;SDS011;20231;42.710;23.280;2023-01-23T10:48:25;11.60;;;5.63;;
33952;SDS011;20231;42.710;23.280;2023-01-23T10:50:54;8.23;;;4.80;;
33952;SDS011;20231;42.710;23.280;2023-01-23T10:53:20;9.00;;;5.63;;
33952;SDS011;20231;42.710;23.280;2023-01-23T10:55:46;10.02;;;6.03;;
33952;SDS011;20231;42.710;23.280;2023-01-23T10:58:35;8.25;;;5.85;;
33952;SDS011;20231;42.710;23.280;2023-01-23T11:01:03;10.45;;;5.88;;
33952;SDS011;20231;42.710;23.280;2023-01-23T11:03:31;10.25;;;5.18;;
33952;SDS011;20231;42.710;23.280;2023-01-23T11:08:29;11.60;;;6.53;;
33952;SDS011;20231;42.710;23.280;2023-01-23T11:11:10;9.70;;;6.50;;
33952;SDS011;20231;42.710;23.280;2023-01-23T11:13:43;12.85;;;6.32;;
33952;SDS011;20231;42.710;23.280;2023-01-23T11:16:14;13.90;;;7.18;;
33952;SDS011;20231;42.710;23.280;2023-01-23T11:18:50;12.80;;;7.05;;
33952;SDS011;20231;42.710;23.280;2023-01-23T11:21:22;11.38;;;7.30;;
33952;SDS011;20231;42.710;23.280;2023-01-23T11:24:06;10.60;;;7.20;;
33952;SDS011;20231;42.710;23.280;2023-01-23T11:26:32;10.07;;;6.22;;
33952;SDS011;20231;42.710;23.280;2023-01-23T11:28:59;12.35;;;7.00;;
33952;SDS011;20231;42.710;23.280;2023-01-23T11:31:24;9.48;;;5.97;;
33952;SDS011;20231;42.710;23.280;2023-01-23T11:33:56;11.23;;;6.40;;
33952;SDS011;20231;42.710;23.280;2023-01-23T11:41:57;11.07;;;5.72;;
33952;SDS011;20231;42.710;23.280;2023-01-23T11:44:22;7.60;;;5.47;;
33952;SDS011;20231;42.710;23.280;2023-01-23T11:55:14;9.13;;;5.55;;
33952;SDS011;20231;42.710;23.280;2023-01-23T12:11:07;8.68;;;5.32;;
33952;SDS011;20231;42.710;23.280;2023-01-23T12:24:36;10.55;;;5.82;;
33952;SDS011;20231;42.710;23.280;2023-01-23T12:32:30;11.77;;;6.53;;
33952;SDS011;20231;42.710;23.280;2023-01-23T12:35:32;9.13;;;6.40;;
33952;SDS011;20231;42.710;23.280;2023-01-23T12:43:18;9.90;;;6.55;;
33952;SDS011;20231;42.710;23.280;2023-01-23T12:46:07;12.45;;;6.38;;
33952;SDS011;20231;42.710;23.280;2023-01-23T12:49:03;8.65;;;6.00;;
33952;SDS011;20231;42.710;23.280;2023-01-23T12:51:42;11.23;;;7.15;;
33952;SDS011;20231;42.710;23.280;2023-01-23T12:54:16;11.50;;;6.88;;
33952;SDS011;20231;42.710;23.280;2023-01-23T12:56:53;9.68;;;6.95;;
33952;SDS011;20231;42.710;23.280;2023-01-23T12:59:21;10.77;;;7.00;;
33952;SDS011;20231;42.710;23.280;2023-01-23T13:04:59;8.50;;;6.15;;
33952;SDS011;20231;42.710;23.280;2023-01-23T13:10:20;15.32;;;5.88;;
33952;SDS011;20231;42.710;23.280;2023-01-23T13:13:14;7.93;;;6.05;;
33952;SDS011;20231;42.710;23.280;2023-01-23T13:15:41;9.15;;;6.00;;
33952;SDS011;20231;42.710;23.280;2023-01-23T13:18:20;8.38;;;5.80;;
33952;SDS011;20231;42.710;23.280;2023-01-23T13:21:09;10.25;;;5.80;;
33952;SDS011;20231;42.710;23.280;2023-01-23T13:24:11;8.88;;;6.00;;
33952;SDS011;20231;42.710;23.280;2023-01-23T13:46:36;11.90;;;6.88;;
33952;SDS011;20231;42.710;23.280;2023-01-23T13:49:29;12.13;;;7.05;;
33952;SDS011;20231;42.710;23.280;2023-01-23T13:52:30;8.10;;;6.00;;
33952;SDS011;20231;42.710;23.280;2023-01-23T13:58:12;12.00;;;7.03;;
33952;SDS011;20231;42.710;23.280;2023-01-23T14:00:42;9.77;;;6.82;;
33952;SDS011;20231;42.710;23.280;2023-01-23T14:03:34;10.38;;;6.88;;
33952;SDS011;20231;42.710;23.280;2023-01-23T14:06:18;10.90;;;7.15;;
33952;SDS011;20231;42.710;23.280;2023-01-23T14:08:55;14.50;;;8.20;;
33952;SDS011;20231;42.710;23.280;2023-01-23T14:11:21;13.23;;;8.80;;
33952;SDS011;20231;42.710;23.280;2023-01-23T14:16:40;13.15;;;8.45;;
33952;SDS011;20231;42.710;23.280;2023-01-23T14:19:47;13.40;;;8.07;;
33952;SDS011;20231;42.710;23.280;2023-01-23T14:22:04;13.55;;;8.32;;
33952;SDS011;20231;42.710;23.280;2023-01-23T14:24:47;13.15;;;8.68;;
33952;SDS011;20231;42.710;23.280;2023-01-23T14:27:27;15.77;;;9.35;;
33952;SDS011;20231;42.710;23.280;2023-01-23T14:32:37;21.30;;;7.72;;
33952;SDS011;20231;42.710;23.280;2023-01-23T14:35:14;15.27;;;9.05;;
33952;SDS011;20231;42.710;23.280;2023-01-23T14:37:46;14.93;;;8.20;;
33952;SDS011;20231;42.710;23.280;2023-01-23T14:40:14;19.38;;;10.90;;
33952;SDS011;20231;42.710;23.280;2023-01-23T14:42:41;18.63;;;8.90;;
33952;SDS011;20231;42.710;23.280;2023-01-23T14:45:08;15.00;;;9.38;;
33952;SDS011;20231;42.710;23.280;2023-01-23T14:47:38;14.80;;;8.38;;
33952;SDS011;20231;42.710;23.280;2023-01-23T14:50:08;13.40;;;8.30;;
33952;SDS011;20231;42.710;23.280;2023-01-23T14:52:39;15.55;;;8.30;;
33952;SDS011;20231;42.710;23.280;2023-01-23T14:55:17;16.25;;;8.18;;
33952;SDS011;20231;42.710;23.280;2023-01-23T14:57:45;13.75;;;8.00;;
33952;SDS011;20231;42.710;23.280;2023-01-23T15:00:12;15.43;;;8.40;;
33952;SDS011;20231;42.710;23.280;2023-01-23T15:02:42;13.40;;;8.20;;
33952;SDS011;20231;42.710;23.280;2023-01-23T15:13:28;14.05;;;7.80;;
33952;SDS011;20231;42.710;23.280;2023-01-23T15:16:00;13.15;;;8.02;;
33952;SDS011;20231;42.710;23.280;2023-01-23T15:18:28;16.65;;;9.35;;
33952;SDS011;20231;42.710;23.280;2023-01-23T15:21:00;14.13;;;7.72;;
33952;SDS011;20231;42.710;23.280;2023-01-23T15:28:55;13.80;;;6.85;;
33952;SDS011;20231;42.710;23.280;2023-01-23T15:31:32;14.73;;;6.93;;
33952;SDS011;20231;42.710;23.280;2023-01-23T15:34:16;9.13;;;5.82;;
33952;SDS011;20231;42.710;23.280;2023-01-23T15:36:52;11.55;;;6.95;;
33952;SDS011;20231;42.710;23.280;2023-01-23T15:39:47;11.32;;;7.22;;
33952;SDS011;20231;42.710;23.280;2023-01-23T15:44:40;10.32;;;6.43;;
33952;SDS011;20231;42.710;23.280;2023-01-23T15:47:06;10.40;;;6.72;;
33952;SDS011;20231;42.710;23.280;2023-01-23T15:49:34;13.45;;;8.23;;
33952;SDS011;20231;42.710;23.280;2023-01-23T15:52:12;16.58;;;7.72;;
33952;SDS011;20231;42.710;23.280;2023-01-23T15:54:39;11.20;;;6.97;;
33952;SDS011;20231;42.710;23.280;2023-01-23T15:57:05;9.25;;;5.80;;
33952;SDS011;20231;42.710;23.280;2023-01-23T15:59:34;11.23;;;6.57;;
33952;SDS011;20231;42.710;23.280;2023-01-23T16:02:00;12.52;;;6.35;;
33952;SDS011;20231;42.710;23.280;2023-01-23T16:04:26;10.30;;;5.60;;
33952;SDS011;20231;42.710;23.280;2023-01-23T16:06:51;10.95;;;5.75;;
33952;SDS011;20231;42.710;23.280;2023-01-23T16:09:21;12.68;;;6.53;;
33952;SDS011;20231;42.710;23.280;2023-01-23T16:12:08;10.57;;;5.78;;
33952;SDS011;20231;42.710;23.280;2023-01-23T16:14:40;12.07;;;5.82;;
33952;SDS011;20231;42.710;23.280;2023-01-23T16:17:05;11.88;;;5.82;;
33952;SDS011;20231;42.710;23.280;2023-01-23T16:19:32;12.93;;;5.60;;
33952;SDS011;20231;42.710;23.280;2023-01-23T16:21:58;11.30;;;6.05;;
33952;SDS011;20231;42.710;23.280;2023-01-23T16:24:24;9.60;;;5.90;;
33952;SDS011;20231;42.710;23.280;2023-01-23T16:26:50;9.75;;;5.90;;
33952;SDS011;20231;42.710;23.280;2023-01-23T16:29:24;10.70;;;5.45;;
33952;SDS011;20231;42.710;23.280;2023-01-23T16:31:57;13.05;;;5.55;;
33952;SDS011;20231;42.710;23.280;2023-01-23T16:34:25;8.38;;;4.78;;
33952;SDS011;20231;42.710;23.280;2023-01-23T16:36:51;11.10;;;4.97;;
33952;SDS011;20231;42.710;23.280;2023-01-23T16:39:20;9.15;;;5.00;;
33952;SDS011;20231;42.710;23.280;2023-01-23T16:41:47;11.05;;;3.85;;
33952;SDS011;20231;42.710;23.280;2023-01-23T16:44:14;7.35;;;4.57;;
33952;SDS011;20231;42.710;23.280;2023-01-23T16:46:43;9.15;;;5.10;;
33952;SDS011;20231;42.710;23.280;2023-01-23T16:49:10;7.43;;;4.75;;